Time;durP1;ratioP1;P1;durP2;ratioP2;P2;SDS_P1;SDS_P2;PMS_P1;PMS_P2;Temp;Humidity;BMP_temperature;BMP_pressure;BME280_temperature;BME280_humidity;BME280_pressure;Samples;Min_cycle;Max_cycle;Signal;HPM_P1;HPM_P2
2022/02/16 00:00:52;;;;;;;35.30;20.90;;;;;;;-1.36;79.86;97490.19;109931;1250;59686;-66
2022/02/16 00:03:21;;;;;;;27.40;17.90;;;;;;;-1.39;81.48;97495.20;109866;1250;70636;-71
2022/02/16 00:05:50;;;;;;;38.40;24.80;;;;;;;-1.41;81.36;97494.08;110021;1249;68187;-72
2022/02/16 00:08:21;;;;;;;34.90;21.10;;;;;;;-1.43;83.28;97496.50;109797;1249;68926;-73
2022/02/16 00:10:50;;;;;;;34.70;19.80;;;;;;;-1.43;83.71;97495.83;109708;1251;59806;-75
2022/02/16 00:13:19;;;;;;;33.70;20.50;;;;;;;-1.47;84.10;97496.59;109836;1250;59664;-67
2022/02/16 00:15:50;;;;;;;35.70;19.80;;;;;;;-1.48;83.47;97499.17;109992;1249;70914;-64
2022/02/16 00:18:19;;;;;;;25.70;15.60;;;;;;;-1.51;82.87;97499.97;109615;1251;68601;-64
2022/02/16 00:20:50;;;;;;;22.00;14.60;;;;;;;-1.54;81.38;97494.38;109802;1250;69281;-65
2022/02/16 00:23:21;;;;;;;23.80;14.80;;;;;;;-1.58;80.85;97491.04;109922;1250;59803;-69
2022/02/16 00:25:50;;;;;;;24.30;15.60;;;;;;;-1.63;81.46;97485.17;109908;1250;59679;-65
2022/02/16 00:28:19;;;;;;;29.40;18.60;;;;;;;-1.66;81.04;97484.05;109661;1250;71530;-65
2022/02/16 00:30:49;;;;;;;18.50;12.60;;;;;;;-1.70;81.86;97488.23;109908;1250;67811;-68
2022/02/16 00:33:19;;;;;;;15.00;9.80;;;;;;;-1.71;80.67;97491.17;109899;1250;69253;-67
2022/02/16 00:35:48;;;;;;;16.70;11.10;;;;;;;-1.71;79.30;97493.73;109706;1251;59727;-73
2022/02/16 00:38:17;;;;;;;18.00;11.40;;;;;;;-1.71;79.42;97491.00;110077;1249;59683;-71
2022/02/16 00:40:47;;;;;;;;;;;;;;;-1.72;80.00;97486.05;110089;1250;71439;-72
2022/02/16 00:43:17;;;;;;;14.20;9.80;;;;;;;-1.70;78.42;97482.95;109838;1249;68457;-74
2022/02/16 00:45:47;;;;;;;21.80;14.00;;;;;;;-1.67;77.96;97479.47;109959;1250;69407;-68
2022/02/16 00:48:16;;;;;;;24.30;14.20;;;;;;;-1.63;77.83;97478.34;109938;1249;59684;-65
2022/02/16 00:50:46;;;;;;;29.30;18.50;;;;;;;-1.59;77.88;97473.28;110123;1249;59740;-66
2022/02/16 00:53:15;;;;;;;32.80;21.10;;;;;;;-1.57;78.48;97475.30;109687;1250;71439;-65
2022/02/16 00:55:47;;;;;;;28.30;15.60;;;;;;;-1.60;78.96;97471.95;109796;1250;67273;-72
2022/02/16 00:58:17;;;;;;;30.60;18.30;;;;;;;-1.63;78.63;97471.66;109969;1249;68490;-64
2022/02/16 01:00:47;;;;;;;25.30;15.50;;;;;;;-1.67;79.75;97471.60;109797;1250;59824;-71
2022/02/16 01:03:17;;;;;;;26.50;17.00;;;;;;;-1.71;80.79;97470.33;109938;1250;60101;-72
2022/02/16 01:05:50;;;;;;;30.00;18.80;;;;;;;-1.75;82.53;97468.53;109888;1250;70808;-69
2022/02/16 01:08:20;;;;;;;26.80;18.00;;;;;;;-1.77;83.61;97470.80;109837;1250;67890;-73
2022/02/16 01:10:50;;;;;;;32.00;20.40;;;;;;;-1.78;84.04;97470.64;109785;1251;69474;-71
2022/02/16 01:13:21;;;;;;;32.30;19.30;;;;;;;-1.77;84.37;97471.66;109998;1249;59748;-70
2022/02/16 01:15:53;;;;;;;33.80;20.80;;;;;;;-1.78;84.57;97465.88;109740;1250;59692;-71
2022/02/16 01:18:23;;;;;;;21.90;13.40;;;;;;;-1.77;84.03;97461.91;109774;1250;71514;-72
2022/02/16 01:20:56;;;;;;;23.60;14.00;;;;;;;-1.72;82.05;97459.26;109942;1250;68464;-74
2022/02/16 01:23:26;;;;;;;19.20;12.50;;;;;;;-1.72;81.21;97456.32;109598;1250;69432;-65
2022/02/16 01:25:57;;;;;;;23.40;14.60;;;;;;;-1.68;80.12;97452.98;109889;1250;59756;-65
2022/02/16 01:28:43;;;;;;;23.50;15.30;;;;;;;-1.58;80.20;97452.24;109957;1249;59713;-71
2022/02/16 01:31:13;;;;;;;26.90;15.70;;;;;;;-1.49;81.04;97453.39;109796;1250;69613;-65
2022/02/16 01:33:46;;;;;;;27.60;14.10;;;;;;;-1.44;81.24;97452.77;110153;1249;67628;-67
2022/02/16 01:36:16;;;;;;;23.80;14.80;;;;;;;-1.43;81.92;97448.30;109944;1248;68624;-70
2022/02/16 01:38:48;;;;;;;21.60;13.00;;;;;;;-1.47;82.11;97442.76;109839;1250;59827;-65
2022/02/16 01:41:23;;;;;;;22.80;13.40;;;;;;;-1.46;81.00;97440.84;109879;1250;59766;-72
2022/02/16 01:44:06;;;;;;;25.10;15.80;;;;;;;-1.47;80.98;97438.15;109917;1250;70076;-66
2022/02/16 01:46:50;;;;;;;24.00;14.30;;;;;;;-1.49;80.67;97434.08;109722;1250;68670;-65
2022/02/16 01:49:21;;;;;;;17.40;12.30;;;;;;;-1.50;81.39;97432.90;109816;1250;69254;-66
2022/02/16 01:51:52;;;;;;;28.20;16.50;;;;;;;-1.52;81.51;97432.97;109971;1250;59751;-65
2022/02/16 01:54:26;;;;;;;24.00;15.60;;;;;;;-1.56;82.50;97432.20;109552;1250;59749;-64
2022/02/16 01:56:57;;;;;;;21.10;13.40;;;;;;;-1.60;81.75;97431.59;109757;1250;71400;-67
2022/02/16 01:59:33;;;;;;;21.70;14.10;;;;;;;-1.64;81.72;97427.95;109886;1250;68409;-66
2022/02/16 02:02:21;;;;;;;;;;;;;;;-1.68;82.06;97427.17;110001;1248;69455;-65
2022/02/16 02:04:55;;;;;;;21.40;13.60;;;;;;;-1.68;84.06;97428.04;109888;1250;59744;-64
2022/02/16 02:07:25;;;;;;;19.00;12.80;;;;;;;-1.68;83.57;97430.61;109585;1250;59729;-64
2022/02/16 02:10:05;;;;;;;18.50;12.80;;;;;;;-1.68;83.19;97419.85;109889;1249;71984;-65
2022/02/16 02:12:48;;;;;;;17.00;13.80;;;;;;;-1.68;82.33;97419.33;109609;1250;68453;-65
2022/02/16 02:15:24;;;;;;;16.50;11.30;;;;;;;-1.69;81.91;97419.19;109901;1250;69297;-66
2022/02/16 02:18:13;;;;;;;27.00;16.30;;;;;;;-1.72;81.57;97414.98;109951;1250;59702;-75
2022/02/16 02:20:43;;;;;;;15.70;10.20;;;;;;;-1.76;81.87;97416.27;109933;1249;59734;-72
2022/02/16 02:23:13;;;;;;;18.10;13.20;;;;;;;-1.77;81.42;97417.66;109922;1250;71437;-66
2022/02/16 02:25:52;;;;;;;21.20;13.90;;;;;;;-1.80;81.07;97417.40;109903;1250;68421;-66
2022/02/16 02:28:26;;;;;;;33.10;18.30;;;;;;;-1.84;81.36;97413.56;109956;1250;69211;-66
2022/02/16 02:30:59;;;;;;;21.40;15.00;;;;;;;-1.91;82.06;97412.36;109996;1249;59735;-68
2022/02/16 02:33:30;;;;;;;19.90;12.00;;;;;;;-1.96;81.40;97416.05;109923;1250;59689;-64
2022/02/16 02:36:00;;;;;;;45.20;25.90;;;;;;;-2.00;82.16;97418.56;109799;1250;69715;-64
2022/02/16 02:38:30;;;;;;;31.00;19.60;;;;;;;-2.05;83.66;97419.50;109954;1250;67950;-65
2022/02/16 02:41:03;;;;;;;35.40;20.50;;;;;;;-2.08;83.02;97414.95;109965;1250;69407;-65
2022/02/16 02:43:43;;;;;;;27.60;16.30;;;;;;;-2.10;83.97;97410.39;109309;1250;777230;-68
2022/02/16 02:46:16;;;;;;;21.40;14.60;;;;;;;-2.12;83.85;97409.24;109748;1250;59666;-66
2022/02/16 02:48:55;;;;;;;17.70;12.00;;;;;;;-2.13;83.24;97404.14;109919;1250;71454;-64
2022/02/16 02:51:25;;;;;;;13.90;8.70;;;;;;;-2.15;82.78;97402.14;109956;1250;68366;-68
2022/02/16 02:53:57;;;;;;;21.60;11.60;;;;;;;-2.08;80.97;97392.76;109824;1249;69427;-71
2022/02/16 02:56:35;;;;;;;16.80;9.80;;;;;;;-1.94;81.97;97388.16;109671;1250;59676;-69
2022/02/16 02:59:04;;;;;;;26.70;17.30;;;;;;;-1.90;81.99;97387.40;109708;1250;59749;-65
2022/02/16 03:01:35;;;;;;;24.30;16.10;;;;;;;-1.94;82.75;97393.47;109993;1250;71387;-70
2022/02/16 03:04:05;;;;;;;24.50;16.30;;;;;;;-1.98;84.07;97392.88;109940;1250;67834;-71
2022/02/16 03:06:36;;;;;;;29.00;15.60;;;;;;;-2.01;84.56;97397.56;109791;1250;69389;-69
2022/02/16 03:09:06;;;;;;;;;;;;;;;-2.03;84.51;97408.53;109973;1250;59742;-69
2022/02/16 03:11:36;;;;;;;13.10;8.50;;;;;;;-2.05;83.10;97416.25;109859;1249;59821;-72
2022/02/16 03:14:07;;;;;;;23.10;14.00;;;;;;;-2.06;82.52;97420.73;110047;1250;71544;-71
2022/02/16 03:16:39;;;;;;;24.50;14.20;;;;;;;-2.07;85.17;97430.46;109976;1250;67628;-72
2022/02/16 03:19:09;;;;;;;17.70;11.10;;;;;;;-2.10;85.62;97424.90;109976;1249;68598;-71
2022/02/16 03:21:40;;;;;;;23.70;13.70;;;;;;;-2.10;83.88;97418.58;109898;1248;59695;-65
2022/02/16 03:24:10;;;;;;;17.30;11.50;;;;;;;-2.12;83.31;97417.77;109978;1250;59728;-65
2022/02/16 03:26:41;;;;;;;15.90;10.30;;;;;;;-2.14;82.68;97415.77;109914;1250;70565;-66
2022/02/16 03:29:12;;;;;;;14.40;10.20;;;;;;;-2.17;82.04;97410.89;109983;1249;68715;-67
2022/02/16 03:31:49;;;;;;;26.90;16.50;;;;;;;-2.22;82.37;97408.95;109903;1250;68646;-67
2022/02/16 03:34:19;;;;;;;21.60;13.50;;;;;;;-2.26;82.47;97401.20;110049;1250;59771;-67
2022/02/16 03:36:50;;;;;;;19.90;12.70;;;;;;;-2.30;83.69;97401.28;109897;1250;59670;-67
2022/02/16 03:39:20;;;;;;;21.30;13.60;;;;;;;-2.31;84.86;97398.58;109800;1250;70737;-65
2022/02/16 03:41:52;;;;;;;25.20;14.50;;;;;;;-2.29;85.49;97406.56;109685;1250;67787;-65
2022/02/16 03:44:22;;;;;;;15.30;10.00;;;;;;;-2.28;85.32;97408.40;109451;1251;69320;-64
2022/02/16 03:46:55;;;;;;;11.80;8.30;;;;;;;-2.25;83.88;97413.48;109751;1250;59771;-66
2022/02/16 03:49:25;;;;;;;15.70;10.20;;;;;;;-2.21;82.41;97413.04;109956;1250;59658;-66
2022/02/16 03:51:58;;;;;;;17.40;10.40;;;;;;;-2.19;82.99;97407.17;109965;1250;71540;-66
2022/02/16 03:54:27;;;;;;;;;;;;;;;-2.17;82.48;97397.39;109767;1250;68542;-72
2022/02/16 03:56:58;;;;;;;17.60;9.90;;;;;;;-2.14;84.47;97395.43;109898;1250;68680;-68
2022/02/16 03:59:29;;;;;;;16.30;10.50;;;;;;;-2.12;83.08;97393.03;109659;1251;59698;-72
2022/02/16 04:02:24;;;;;;;16.30;10.50;;;;;;;-2.10;83.13;97394.52;109680;1251;59698;-66
2022/02/16 04:04:54;;;;;;;12.70;7.60;;;;;;;-2.10;83.21;97391.10;109877;1250;71532;-65
2022/02/16 04:07:24;;;;;;;12.40;8.20;;;;;;;-2.10;82.41;97389.91;110008;1250;68565;-73
2022/02/16 04:09:54;;;;;;;20.50;11.80;;;;;;;-2.10;82.18;97386.65;109856;1250;68824;-68
2022/02/16 04:12:24;;;;;;;20.40;12.50;;;;;;;-2.12;83.12;97382.27;109890;1250;59663;-74
2022/02/16 04:14:55;;;;;;;22.60;13.00;;;;;;;-2.12;83.79;97389.09;109807;1250;59711;-73
2022/02/16 04:17:27;;;;;;;17.30;11.00;;;;;;;-2.13;83.93;97392.02;109773;1250;70811;-67
2022/02/16 04:19:59;;;;;;;18.40;12.00;;;;;;;-2.13;83.00;97392.02;109551;1250;69650;-72
2022/02/16 04:22:32;;;;;;;22.50;13.30;;;;;;;-2.13;83.92;97394.07;109620;1250;69947;-69
2022/02/16 04:25:04;;;;;;;16.40;10.70;;;;;;;-2.13;83.55;97399.69;109577;1253;59657;-72
2022/02/16 04:27:37;;;;;;;17.10;11.40;;;;;;;-2.11;83.17;97403.44;109790;1250;59762;-66
2022/02/16 04:30:11;;;;;;;15.80;9.30;;;;;;;-2.10;83.15;97405.95;109851;1250;70829;-72
2022/02/16 04:32:42;;;;;;;14.60;8.90;;;;;;;-2.08;82.72;97407.10;109755;1251;68586;-69
2022/02/16 04:35:13;;;;;;;15.00;11.60;;;;;;;-2.07;82.41;97413.91;109921;1250;69471;-71
2022/02/16 04:37:49;;;;;;;16.50;11.10;;;;;;;-2.08;82.78;97410.34;109834;1250;59718;-73
2022/02/16 04:40:29;;;;;;;11.00;7.00;;;;;;;-2.08;82.38;97406.93;109785;1250;59755;-72
2022/02/16 04:43:05;;;;;;;14.90;8.80;;;;;;;-2.09;81.87;97403.20;109755;1251;71569;-70
2022/02/16 04:45:38;;;;;;;11.90;7.60;;;;;;;-2.10;81.29;97415.86;109723;1250;67995;-72
2022/02/16 04:48:12;;;;;;;22.30;14.00;;;;;;;-2.13;81.11;97416.94;109749;1250;69747;-73
2022/02/16 04:50:46;;;;;;;15.40;9.50;;;;;;;-2.18;82.01;97420.64;109731;1250;59733;-73
2022/02/16 04:53:17;;;;;;;19.10;12.70;;;;;;;-2.22;81.55;97417.15;109670;1250;59741;-72
2022/02/16 04:55:52;;;;;;;13.20;8.90;;;;;;;-2.26;81.13;97411.27;109783;1250;72876;-71
2022/02/16 04:58:24;;;;;;;24.80;14.90;;;;;;;-2.31;81.44;97411.88;109736;1250;68485;-72
2022/02/16 05:00:58;;;;;;;22.20;13.50;;;;;;;-2.37;82.69;97416.45;110013;1250;68706;-73
2022/02/16 05:03:42;;;;;;;20.30;12.60;;;;;;;-2.42;83.06;97417.77;109604;1250;59702;-72
2022/02/16 05:06:22;;;;;;;13.10;7.60;;;;;;;-2.45;82.69;97419.35;109927;1250;59707;-74
2022/02/16 05:08:57;;;;;;;14.90;10.30;;;;;;;-2.42;80.92;97419.46;109914;1249;71383;-71
2022/02/16 05:11:28;;;;;;;24.30;15.10;;;;;;;-2.41;80.73;97418.75;109712;1250;67842;-73
2022/02/16 05:14:04;;;;;;;19.30;11.90;;;;;;;-2.40;82.01;97418.75;109717;1248;70813;-72
2022/02/16 05:16:41;;;;;;;20.90;13.10;;;;;;;-2.40;81.43;97424.38;109794;1250;59733;-66
2022/02/16 05:19:14;;;;;;;24.30;16.20;;;;;;;-2.45;83.81;97434.36;109792;1250;59651;-73
2022/02/16 05:21:46;;;;;;;17.00;12.80;;;;;;;-2.48;83.37;97437.02;109771;1250;71569;-70
2022/02/16 05:24:22;;;;;;;18.60;11.80;;;;;;;-2.49;82.59;97437.20;109887;1250;70006;-72
2022/02/16 05:26:54;;;;;;;16.90;11.30;;;;;;;-2.49;81.91;97436.85;109798;1250;68648;-68
2022/02/16 05:29:24;;;;;;;23.50;15.20;;;;;;;-2.48;82.53;97431.20;109844;1250;59665;-72
2022/02/16 05:32:06;;;;;;;27.10;16.00;;;;;;;-2.45;85.77;97430.61;109746;1250;59757;-71
2022/02/16 05:34:42;;;;;;;18.40;12.00;;;;;;;-2.38;86.01;97438.51;109593;1249;69745;-73
2022/02/16 05:37:17;;;;;;;22.60;15.20;;;;;;;-2.31;86.15;97437.83;109712;1249;67914;-72
2022/02/16 05:39:52;;;;;;;14.80;9.70;;;;;;;-2.22;86.02;97434.05;109766;1250;68674;-72
2022/02/16 05:42:25;;;;;;;15.20;9.40;;;;;;;-2.13;84.02;97430.09;109733;1250;59812;-72
2022/02/16 05:44:57;;;;;;;21.60;12.10;;;;;;;-2.01;83.42;97432.58;109889;1250;59723;-70
2022/02/16 05:47:29;;;;;;;19.50;13.30;;;;;;;-1.93;83.96;97432.40;109590;1250;71633;-64
2022/02/16 05:49:59;;;;;;;26.00;17.00;;;;;;;-1.84;84.14;97435.61;109749;1250;67893;-69
2022/02/16 05:52:28;;;;;;;22.20;14.00;;;;;;;-1.79;84.69;97438.89;109846;1250;68801;-73
2022/02/16 05:54:59;;;;;;;24.00;16.80;;;;;;;-1.72;83.11;97436.49;109837;1249;59726;-72
2022/02/16 05:57:30;;;;;;;31.80;19.00;;;;;;;-1.64;84.41;97425.21;109881;1250;59685;-65
2022/02/16 06:00:00;;;;;;;;;;;;;;;-1.53;83.42;97415.37;110102;1250;71574;-65
2022/02/16 06:02:39;;;;;;;24.20;15.20;;;;;;;-1.41;82.66;97409.95;110070;1250;68819;-66
2022/02/16 06:05:12;;;;;;;21.70;11.10;;;;;;;-1.33;82.26;97406.83;110031;1250;69430;-67
2022/02/16 06:07:41;;;;;;;18.50;11.00;;;;;;;-1.23;81.75;97405.05;109926;1250;59753;-65
2022/02/16 06:10:10;;;;;;;18.70;12.00;;;;;;;-1.17;81.72;97406.44;109900;1250;59631;-65
2022/02/16 06:12:43;;;;;;;22.40;13.90;;;;;;;-1.13;81.98;97398.29;109820;1250;71591;-66
2022/02/16 06:15:12;;;;;;;18.00;11.80;;;;;;;-1.07;81.56;97399.50;110103;1250;68614;-64
2022/02/16 06:17:42;;;;;;;21.40;12.70;;;;;;;-1.00;81.14;97404.80;109551;1250;69432;-64
2022/02/16 06:20:13;;;;;;;17.90;12.20;;;;;;;-0.97;81.07;97402.98;110074;1249;59719;-67
2022/02/16 06:22:43;;;;;;;23.90;14.80;;;;;;;-0.94;82.95;97406.52;109819;1250;60119;-70
2022/02/16 06:25:13;;;;;;;19.30;12.10;;;;;;;-0.90;83.06;97414.95;109972;1250;71654;-71
2022/02/16 06:27:45;;;;;;;15.00;9.40;;;;;;;-0.84;82.11;97412.57;109923;1250;68892;-72
2022/02/16 06:30:15;;;;;;;22.60;13.60;;;;;;;-0.78;81.78;97411.36;109858;1250;69242;-71
2022/02/16 06:32:50;;;;;;;24.40;14.70;;;;;;;-0.71;82.82;97406.55;109908;1249;59754;-72
2022/02/16 06:35:19;;;;;;;19.50;12.60;;;;;;;-0.66;83.36;97414.11;109925;1250;59778;-73
2022/02/16 06:37:49;;;;;;;17.50;11.10;;;;;;;-0.60;82.89;97419.75;109865;1250;71644;-69
2022/02/16 06:40:18;;;;;;;17.40;10.30;;;;;;;-0.55;82.50;97411.58;109858;1250;67906;-70
2022/02/16 06:42:49;;;;;;;20.90;13.80;;;;;;;-0.52;82.73;97398.48;110081;1249;69582;-66
2022/02/16 06:45:19;;;;;;;16.30;11.40;;;;;;;-0.46;82.50;97398.15;109889;1250;59773;-65
2022/02/16 06:47:50;;;;;;;18.90;12.70;;;;;;;-0.40;82.30;97396.25;109877;1250;59687;-71
2022/02/16 06:50:19;;;;;;;25.00;15.40;;;;;;;-0.32;81.96;97395.66;109697;1250;71659;-72
2022/02/16 06:53:09;;;;;;;34.20;21.90;;;;;;;-0.24;82.48;97401.93;109844;1250;68614;-65
2022/02/16 06:55:40;;;;;;;35.60;23.30;;;;;;;-0.18;81.42;97399.89;109962;1250;69303;-73
2022/02/16 06:58:09;;;;;;;45.40;28.30;;;;;;;-0.16;80.69;97398.78;109699;1250;59772;-70
2022/02/16 07:00:40;;;;;;;34.30;23.70;;;;;;;-0.11;80.49;97392.13;110095;1248;59747;-72
2022/02/16 07:03:10;;;;;;;33.90;24.20;;;;;;;-0.04;80.26;97392.09;109888;1250;70935;-72
2022/02/16 07:05:44;;;;;;;32.10;19.60;;;;;;;0.04;79.92;97388.24;109913;1250;68731;-71
2022/02/16 07:08:17;;;;;;;27.00;18.50;;;;;;;0.13;79.29;97385.58;109989;1250;69491;-71
2022/02/16 07:10:46;;;;;;;23.60;15.10;;;;;;;0.19;78.81;97379.20;109827;1250;59825;-72
2022/02/16 07:13:16;;;;;;;22.80;13.40;;;;;;;0.25;78.58;97375.23;109676;1250;60196;-73
2022/02/16 07:15:45;;;;;;;27.60;18.40;;;;;;;0.29;78.65;97377.17;110044;1250;71527;-71
2022/02/16 07:18:15;;;;;;;49.30;31.70;;;;;;;0.32;78.72;97372.10;109944;1249;68613;-73
2022/02/16 07:20:49;;;;;;;35.90;26.20;;;;;;;0.36;78.71;97368.17;109788;1250;67490;-67
2022/02/16 07:23:19;;;;;;;55.60;32.30;;;;;;;0.42;80.30;97367.14;109907;1250;60064;-71
2022/02/16 07:25:48;;;;;;;67.40;38.70;;;;;;;0.38;81.03;97377.55;109906;1250;59728;-67
2022/02/16 07:28:21;;;;;;;55.50;34.30;;;;;;;0.39;80.63;97381.98;109886;1249;70571;-67
2022/02/16 07:30:50;;;;;;;41.40;25.00;;;;;;;0.46;80.25;97375.57;109832;1250;68599;-64
2022/02/16 07:33:20;;;;;;;62.50;38.60;;;;;;;0.62;79.36;97376.74;110061;1249;68934;-68
2022/02/16 07:35:51;;;;;;;60.10;35.40;;;;;;;0.51;79.46;97381.24;109652;1251;59774;-67
2022/02/16 07:38:19;;;;;;;55.50;35.00;;;;;;;0.30;80.07;97382.95;109896;1250;59688;-67
2022/02/16 07:40:49;;;;;;;61.60;37.90;;;;;;;0.05;80.67;97378.95;109900;1250;71673;-67
2022/02/16 07:43:21;;;;;;;35.20;22.60;;;;;;;-0.03;81.19;97371.84;110020;1250;68634;-69
2022/02/16 07:46:10;;;;;;;27.70;18.50;;;;;;;0.13;81.10;97367.73;109562;1250;69532;-68
2022/02/16 07:48:42;;;;;;;28.60;16.80;;;;;;;0.35;80.10;97364.96;109840;1250;59660;-71
2022/02/16 07:51:22;;;;;;;36.50;22.00;;;;;;;0.64;79.40;97361.42;109853;1250;59703;-67
2022/02/16 07:54:18;;;;;;;30.80;20.40;;;;;;;0.94;78.92;97359.87;109937;1250;70792;-65
2022/02/16 07:56:51;;;;;;;25.70;15.40;;;;;;;1.18;78.45;97357.65;109867;1250;68210;-65
2022/02/16 07:59:20;;;;;;;27.70;19.10;;;;;;;1.43;77.92;97364.12;109855;1251;68670;-66
2022/02/16 08:01:50;;;;;;;39.90;26.40;;;;;;;1.62;77.21;97361.86;109676;1252;60064;-64
2022/02/16 08:04:19;;;;;;;30.80;21.80;;;;;;;1.78;77.08;97361.08;109866;1250;59787;-67
2022/02/16 08:06:52;;;;;;;26.40;19.20;;;;;;;2.00;76.92;97367.27;109885;1250;70768;-67
2022/02/16 08:09:21;;;;;;;32.00;21.50;;;;;;;2.22;76.72;97367.77;109860;1250;68617;-66
2022/02/16 08:11:51;;;;;;;28.30;19.50;;;;;;;2.46;76.38;97370.23;109863;1250;69450;-70
2022/02/16 08:14:21;;;;;;;25.70;18.10;;;;;;;2.72;76.13;97374.66;109895;1250;59733;-65
2022/02/16 08:16:57;;;;;;;37.80;25.50;;;;;;;2.96;75.42;97377.09;109872;1250;59785;-66
2022/02/16 08:19:26;;;;;;;23.40;16.00;;;;;;;3.18;75.23;97374.94;109800;1251;70816;-63
2022/02/16 08:21:57;;;;;;;25.80;18.60;;;;;;;3.41;74.41;97371.52;109982;1250;69406;-72
2022/02/16 08:24:28;;;;;;;22.20;16.90;;;;;;;3.61;74.55;97367.36;109921;1250;69534;-74
2022/02/16 08:27:00;;;;;;;26.70;17.70;;;;;;;3.86;74.32;97369.60;109882;1250;59755;-72
2022/02/16 08:29:32;;;;;;;31.90;20.30;;;;;;;4.25;73.10;97366.07;109796;1250;59833;-68
2022/02/16 08:32:05;;;;;;;44.60;30.90;;;;;;;4.70;72.39;97364.54;109833;1250;71562;-68
2022/02/16 08:34:54;;;;;;;52.40;37.70;;;;;;;5.02;69.51;97367.02;109908;1250;67923;-71
2022/02/16 08:37:29;;;;;;;46.80;33.00;;;;;;;5.17;68.32;97360.75;109834;1250;68515;-75
2022/02/16 08:39:59;;;;;;;37.80;29.20;;;;;;;5.30;69.45;97360.41;109920;1250;59769;-76
2022/02/16 08:42:28;;;;;;;32.10;21.50;;;;;;;5.39;69.66;97358.05;109939;1249;59744;-66
2022/02/16 08:44:58;;;;;;;29.50;21.40;;;;;;;5.43;69.43;97357.86;109841;1251;71670;-68
2022/02/16 08:47:27;;;;;;;;;;;;;;;5.46;68.99;97357.17;109964;1250;68913;-67
2022/02/16 08:49:56;;;;;;;30.00;21.50;;;;;;;5.49;68.05;97355.09;109966;1249;68636;-72
2022/02/16 08:52:25;;;;;;;46.40;34.50;;;;;;;5.57;68.96;97356.23;109807;1250;59730;-71
2022/02/16 08:54:54;;;;;;;58.70;39.70;;;;;;;5.59;66.92;97355.24;109819;1250;59684;-72
2022/02/16 08:57:24;;;;;;;61.40;42.00;;;;;;;5.59;67.12;97355.10;110166;1249;70902;-73
2022/02/16 08:59:53;;;;;;;46.50;32.10;;;;;;;5.70;67.41;97352.11;109915;1250;68592;-71
2022/02/16 09:02:22;;;;;;;49.50;33.30;;;;;;;5.84;66.97;97349.43;109873;1250;68652;-75
2022/02/16 09:04:51;;;;;;;57.70;38.70;;;;;;;6.00;67.06;97349.41;109910;1250;59728;-70
2022/02/16 09:07:28;;;;;;;44.60;28.60;;;;;;;6.18;66.79;97347.39;109911;1250;59685;-72
2022/02/16 09:09:59;;;;;;;61.50;46.40;;;;;;;6.38;67.04;97343.69;110133;1250;69622;-75
2022/02/16 09:12:30;;;;;;;41.80;32.00;;;;;;;6.58;65.53;97344.77;109896;1250;68566;-74
2022/02/16 09:14:59;;;;;;;49.80;37.30;;;;;;;6.90;65.98;97349.46;110170;1250;68657;-72
2022/02/16 09:17:29;;;;;;;40.60;31.00;;;;;;;7.18;66.16;97351.13;109898;1250;59790;-68
2022/02/16 09:19:58;;;;;;;28.90;21.90;;;;;;;7.40;65.55;97349.61;109886;1250;59672;-70
2022/02/16 09:22:28;;;;;;;27.40;18.70;;;;;;;7.76;65.42;97346.35;110118;1249;70823;-69
2022/02/16 09:24:56;;;;;;;30.10;20.60;;;;;;;8.62;64.75;97339.45;110141;1250;68659;-66
2022/02/16 09:27:25;;;;;;;28.90;20.80;;;;;;;9.50;62.29;97341.32;109913;1250;69507;-69
2022/02/16 09:29:54;;;;;;;21.10;16.60;;;;;;;9.97;58.38;97339.05;110119;1248;59693;-67
2022/02/16 09:32:24;;;;;;;17.50;11.00;;;;;;;10.23;53.59;97332.12;109830;1250;59742;-66
2022/02/16 09:34:54;;;;;;;15.20;9.90;;;;;;;10.51;51.58;97330.11;110184;1249;71528;-66
2022/02/16 09:37:24;;;;;;;21.10;12.90;;;;;;;10.59;50.10;97323.73;110083;1249;68617;-75
2022/02/16 09:39:54;;;;;;;17.80;14.20;;;;;;;10.51;49.05;97321.04;109768;1250;69453;-74
2022/02/16 09:42:24;;;;;;;16.30;12.30;;;;;;;10.64;50.29;97319.05;109881;1250;60107;-77
2022/02/16 09:45:01;;;;;;;15.40;11.30;;;;;;;10.81;51.54;97317.94;110067;1250;59717;-68
2022/02/16 09:47:33;;;;;;;15.80;12.00;;;;;;;11.00;49.24;97314.25;109973;1248;70741;-68
2022/02/16 09:50:04;;;;;;;20.30;14.80;;;;;;;11.10;50.79;97309.98;109895;1250;68594;-69
2022/02/16 09:52:35;;;;;;;16.80;12.90;;;;;;;11.14;50.38;97304.26;109885;1250;69683;-68
2022/02/16 09:55:04;;;;;;;15.00;11.70;;;;;;;11.25;52.14;97304.86;109869;1250;59690;-67
2022/02/16 09:57:34;;;;;;;16.20;13.00;;;;;;;11.33;52.19;97300.66;109828;1251;59965;-67
2022/02/16 10:00:07;;;;;;;14.80;11.40;;;;;;;11.37;51.68;97298.29;109969;1250;72094;-67
2022/02/16 10:02:43;;;;;;;13.20;9.50;;;;;;;11.33;50.42;97296.52;109903;1250;68589;-69
2022/02/16 10:05:15;;;;;;;13.60;10.60;;;;;;;11.36;51.13;97295.41;109962;1250;69491;-65
2022/02/16 10:07:51;;;;;;;11.70;7.80;;;;;;;11.43;51.04;97293.95;109840;1250;59807;-67
2022/02/16 10:10:21;;;;;;;11.00;8.50;;;;;;;11.52;48.87;97283.72;109819;1250;59751;-66
2022/02/16 10:12:51;;;;;;;;;;;;;;;11.81;50.06;97282.27;109907;1250;71579;-67
2022/02/16 10:15:23;;;;;;;17.70;13.50;;;;;;;12.19;46.26;97278.56;109957;1250;67865;-66
2022/02/16 10:18:14;;;;;;;14.70;10.50;;;;;;;12.37;43.31;97273.05;109789;1250;69454;-67
2022/02/16 10:20:44;;;;;;;17.60;11.60;;;;;;;12.88;41.33;97272.60;109951;1250;59777;-66
2022/02/16 10:23:15;;;;;;;;;;;;;;;13.52;42.25;97273.65;110028;1250;59634;-68
2022/02/16 10:25:50;;;;;;;14.80;10.10;;;;;;;14.34;42.85;97265.66;109909;1250;72329;-67
2022/02/16 10:28:21;;;;;;;14.50;11.10;;;;;;;15.18;40.27;97263.44;109950;1250;67934;-67
2022/02/16 10:30:59;;;;;;;16.80;12.50;;;;;;;15.71;41.50;97259.66;109932;1249;69411;-66
2022/02/16 10:33:31;;;;;;;15.70;10.90;;;;;;;15.92;41.61;97258.55;109741;1250;59760;-69
2022/02/16 10:36:11;;;;;;;13.10;9.70;;;;;;;15.97;40.45;97254.19;109816;1251;60214;-68
2022/02/16 10:38:56;;;;;;;17.00;12.70;;;;;;;15.87;38.49;97247.56;109779;1252;72277;-68
2022/02/16 10:41:42;;;;;;;13.90;9.90;;;;;;;15.62;38.74;97242.23;109921;1250;68607;-69
2022/02/16 10:44:19;;;;;;;12.40;8.90;;;;;;;15.53;39.75;97241.52;109901;1249;69604;-72
2022/02/16 10:47:08;;;;;;;14.70;11.40;;;;;;;15.44;38.71;97236.05;109957;1250;59691;-70
2022/02/16 10:49:43;;;;;;;13.90;10.80;;;;;;;14.73;36.37;97241.23;109975;1250;59736;-72
2022/02/16 10:52:18;;;;;;;18.20;12.70;;;;;;;14.43;39.10;97240.14;109965;1250;71491;-70
2022/02/16 10:54:53;;;;;;;17.50;14.20;;;;;;;13.92;37.79;97237.39;109889;1250;68620;-71
2022/02/16 10:57:22;;;;;;;19.00;14.80;;;;;;;13.21;38.78;97241.88;109961;1250;69114;-71
2022/02/16 10:59:52;;;;;;;17.60;12.90;;;;;;;12.92;40.05;97234.52;109872;1250;59777;-73
2022/02/16 11:02:21;;;;;;;21.10;15.20;;;;;;;12.60;40.16;97229.86;109789;1251;59694;-69
2022/02/16 11:04:53;;;;;;;18.50;12.90;;;;;;;11.89;41.46;97220.52;109931;1250;69936;-73
2022/02/16 11:07:24;;;;;;;22.00;16.50;;;;;;;11.95;42.06;97217.43;109887;1250;67819;-67
2022/02/16 11:09:57;;;;;;;21.20;16.40;;;;;;;11.39;42.29;97216.48;109739;1252;69730;-68
2022/02/16 11:12:26;;;;;;;19.70;13.40;;;;;;;11.32;43.02;97212.84;109996;1250;59653;-67
2022/02/16 11:14:56;;;;;;;22.80;15.70;;;;;;;11.21;43.55;97213.19;109823;1251;59611;-66
2022/02/16 11:17:26;;;;;;;19.90;16.40;;;;;;;10.95;43.65;97211.06;109924;1250;70794;-68
2022/02/16 11:20:21;;;;;;;19.40;12.30;;;;;;;10.86;44.07;97211.88;109937;1250;68707;-65
2022/02/16 11:22:56;;;;;;;23.40;15.50;;;;;;;10.78;44.52;97205.00;109890;1250;68696;-68
2022/02/16 11:25:31;;;;;;;21.10;15.60;;;;;;;10.58;44.87;97200.30;109831;1253;59675;-68
2022/02/16 11:28:28;;;;;;;24.70;17.10;;;;;;;10.37;45.55;97190.39;109775;1251;60069;-67
2022/02/16 11:30:57;;;;;;;22.90;17.20;;;;;;;10.17;46.24;97190.13;109902;1250;71510;-68
2022/02/16 11:33:26;;;;;;;16.70;12.90;;;;;;;9.99;46.89;97185.20;109858;1250;68759;-70
2022/02/16 11:36:00;;;;;;;20.70;16.60;;;;;;;10.04;47.00;97180.81;109793;1251;69445;-67
2022/02/16 11:38:44;;;;;;;24.20;17.70;;;;;;;9.98;47.02;97174.65;109939;1250;59692;-69